sensor_id;sensor_type;location;lat;lon;timestamp;pressure;altitude;pressure_sealevel;temperature;humidity
84511;BME280;74730;43.858;18.424;2024-03-29T00:00:34;94991.72;;;14.30;54.34
84511;BME280;74730;43.858;18.424;2024-03-29T00:02:59;94986.06;;;14.33;53.89
84511;BME280;74730;43.858;18.424;2024-03-29T00:05:25;94998.06;;;14.34;53.90
84511;BME280;74730;43.858;18.424;2024-03-29T00:07:50;94997.94;;;14.29;54.44
84511;BME280;74730;43.858;18.424;2024-03-29T00:10:16;94991.81;;;14.23;54.49
84511;BME280;74730;43.858;18.424;2024-03-29T00:12:41;94999.41;;;14.25;54.21
84511;BME280;74730;43.858;18.424;2024-03-29T00:15:07;95016.53;;;14.26;53.95
84511;BME280;74730;43.858;18.424;2024-03-29T00:17:33;95022.53;;;14.26;54.28
84511;BME280;74730;43.858;18.424;2024-03-29T00:19:58;95026.94;;;14.26;54.36
84511;BME280;74730;43.858;18.424;2024-03-29T00:22:24;95022.19;;;14.23;54.32
84511;BME280;74730;43.858;18.424;2024-03-29T00:24:49;95024.13;;;14.27;54.01
84511;BME280;74730;43.858;18.424;2024-03-29T00:27:15;95021.53;;;14.27;54.08
84511;BME280;74730;43.858;18.424;2024-03-29T00:29:40;95005.47;;;14.18;54.51
84511;BME280;74730;43.858;18.424;2024-03-29T00:32:06;95012.00;;;14.09;54.91
84511;BME280;74730;43.858;18.424;2024-03-29T00:34:32;95011.88;;;14.04;54.87
84511;BME280;74730;43.858;18.424;2024-03-29T00:36:57;94995.19;;;14.00;55.24
84511;BME280;74730;43.858;18.424;2024-03-29T00:39:23;95003.03;;;13.94;55.37
84511;BME280;74730;43.858;18.424;2024-03-29T00:41:48;95011.28;;;13.91;55.86
84511;BME280;74730;43.858;18.424;2024-03-29T00:44:14;95000.56;;;13.87;55.64
84511;BME280;74730;43.858;18.424;2024-03-29T00:46:39;95019.06;;;13.91;55.54
84511;BME280;74730;43.858;18.424;2024-03-29T00:49:04;95010.16;;;13.87;55.56
84511;BME280;74730;43.858;18.424;2024-03-29T00:51:30;95030.00;;;13.81;55.84
84511;BME280;74730;43.858;18.424;2024-03-29T00:53:55;95024.25;;;13.79;56.11
84511;BME280;74730;43.858;18.424;2024-03-29T00:56:21;95020.19;;;13.83;55.79
84511;BME280;74730;43.858;18.424;2024-03-29T00:58:46;95023.59;;;13.95;55.48
84511;BME280;74730;43.858;18.424;2024-03-29T01:01:12;95007.81;;;14.08;55.53
84511;BME280;74730;43.858;18.424;2024-03-29T01:03:37;95011.75;;;13.99;55.47
84511;BME280;74730;43.858;18.424;2024-03-29T01:06:03;95034.00;;;13.95;55.59
84511;BME280;74730;43.858;18.424;2024-03-29T01:08:28;95016.69;;;13.89;55.75
84511;BME280;74730;43.858;18.424;2024-03-29T01:10:54;95021.34;;;13.99;55.52
84511;BME280;74730;43.858;18.424;2024-03-29T01:13:19;95038.25;;;13.90;56.08
84511;BME280;74730;43.858;18.424;2024-03-29T01:15:45;95043.69;;;13.88;55.49
84511;BME280;74730;43.858;18.424;2024-03-29T01:18:10;95034.56;;;13.97;55.43
84511;BME280;74730;43.858;18.424;2024-03-29T01:20:36;95047.44;;;13.92;55.90
84511;BME280;74730;43.858;18.424;2024-03-29T01:23:01;95047.84;;;13.89;55.74
84511;BME280;74730;43.858;18.424;2024-03-29T01:25:27;95049.53;;;13.84;56.27
84511;BME280;74730;43.858;18.424;2024-03-29T01:27:53;95050.91;;;13.86;56.42
84511;BME280;74730;43.858;18.424;2024-03-29T01:30:18;95047.94;;;13.83;56.59
84511;BME280;74730;43.858;18.424;2024-03-29T01:32:44;95055.50;;;13.84;55.84
84511;BME280;74730;43.858;18.424;2024-03-29T01:35:09;95052.66;;;13.74;56.47
84511;BME280;74730;43.858;18.424;2024-03-29T01:37:35;95069.53;;;13.65;56.83
84511;BME280;74730;43.858;18.424;2024-03-29T01:40:00;95078.41;;;13.57;57.24
84511;BME280;74730;43.858;18.424;2024-03-29T01:42:27;95096.72;;;13.62;56.71
84511;BME280;74730;43.858;18.424;2024-03-29T01:44:52;95086.63;;;13.54;57.25
84511;BME280;74730;43.858;18.424;2024-03-29T01:47:18;95100.97;;;13.57;57.36
84511;BME280;74730;43.858;18.424;2024-03-29T01:49:44;95105.72;;;13.60;57.21
84511;BME280;74730;43.858;18.424;2024-03-29T01:52:12;95105.88;;;13.65;56.65
84511;BME280;74730;43.858;18.424;2024-03-29T01:54:40;95131.75;;;13.71;56.97
84511;BME280;74730;43.858;18.424;2024-03-29T01:57:06;95106.50;;;13.79;56.64
84511;BME280;74730;43.858;18.424;2024-03-29T01:59:32;95126.63;;;13.83;56.76
84511;BME280;74730;43.858;18.424;2024-03-29T02:01:58;95135.41;;;13.82;56.62
84511;BME280;74730;43.858;18.424;2024-03-29T02:04:26;95139.50;;;13.90;56.67
84511;BME280;74730;43.858;18.424;2024-03-29T02:06:52;95142.91;;;13.90;56.84
84511;BME280;74730;43.858;18.424;2024-03-29T02:09:17;95148.88;;;13.91;56.32
84511;BME280;74730;43.858;18.424;2024-03-29T02:11:43;95149.47;;;13.93;56.93
84511;BME280;74730;43.858;18.424;2024-03-29T02:14:09;95167.66;;;13.93;56.62
84511;BME280;74730;43.858;18.424;2024-03-29T02:16:34;95165.69;;;13.88;56.89
84511;BME280;74730;43.858;18.424;2024-03-29T02:19:00;95170.91;;;13.88;56.80
84511;BME280;74730;43.858;18.424;2024-03-29T02:21:25;95175.34;;;13.99;56.35
84511;BME280;74730;43.858;18.424;2024-03-29T02:24:17;95190.13;;;13.99;56.38
84511;BME280;74730;43.858;18.424;2024-03-29T02:26:43;95187.88;;;14.02;56.81
84511;BME280;74730;43.858;18.424;2024-03-29T02:29:10;95202.91;;;14.00;56.25
84511;BME280;74730;43.858;18.424;2024-03-29T02:31:36;95206.50;;;13.99;56.73
84511;BME280;74730;43.858;18.424;2024-03-29T02:34:01;95207.09;;;14.01;56.66
84511;BME280;74730;43.858;18.424;2024-03-29T02:36:27;95214.63;;;14.03;56.68
84511;BME280;74730;43.858;18.424;2024-03-29T02:38:52;95227.06;;;14.01;56.87
84511;BME280;74730;43.858;18.424;2024-03-29T02:41:18;95222.66;;;14.01;56.92
84511;BME280;74730;43.858;18.424;2024-03-29T02:43:43;95229.00;;;14.05;56.46
84511;BME280;74730;43.858;18.424;2024-03-29T02:46:09;95236.34;;;14.08;56.56
84511;BME280;74730;43.858;18.424;2024-03-29T02:48:34;95234.75;;;14.07;56.78
84511;BME280;74730;43.858;18.424;2024-03-29T02:51:00;95243.13;;;14.09;56.32
84511;BME280;74730;43.858;18.424;2024-03-29T02:53:25;95251.72;;;14.10;56.49
84511;BME280;74730;43.858;18.424;2024-03-29T02:55:51;95260.53;;;14.09;56.38
84511;BME280;74730;43.858;18.424;2024-03-29T02:58:16;95263.31;;;14.07;56.48
84511;BME280;74730;43.858;18.424;2024-03-29T03:00:42;95264.72;;;14.10;56.71
84511;BME280;74730;43.858;18.424;2024-03-29T03:03:07;95273.50;;;14.09;56.77
84511;BME280;74730;43.858;18.424;2024-03-29T03:05:33;95284.09;;;14.07;57.20
84511;BME280;74730;43.858;18.424;2024-03-29T03:07:58;95283.34;;;14.07;56.80
84511;BME280;74730;43.858;18.424;2024-03-29T03:10:46;95289.28;;;14.07;56.65
84511;BME280;74730;43.858;18.424;2024-03-29T03:13:21;95297.53;;;14.04;56.98
84511;BME280;74730;43.858;18.424;2024-03-29T03:15:47;95299.34;;;14.04;57.25
84511;BME280;74730;43.858;18.424;2024-03-29T03:18:12;95302.13;;;14.02;57.37
84511;BME280;74730;43.858;18.424;2024-03-29T03:20:38;95302.56;;;13.99;57.58
84511;BME280;74730;43.858;18.424;2024-03-29T03:23:04;95305.38;;;13.98;57.44
84511;BME280;74730;43.858;18.424;2024-03-29T03:25:29;95306.63;;;13.95;58.12
84511;BME280;74730;43.858;18.424;2024-03-29T03:27:55;95312.00;;;13.94;57.47
84511;BME280;74730;43.858;18.424;2024-03-29T03:30:21;95311.00;;;13.95;57.60
84511;BME280;74730;43.858;18.424;2024-03-29T03:32:47;95316.41;;;13.93;58.04
84511;BME280;74730;43.858;18.424;2024-03-29T03:35:13;95314.41;;;13.95;57.04
84511;BME280;74730;43.858;18.424;2024-03-29T03:37:39;95300.09;;;13.86;57.55
84511;BME280;74730;43.858;18.424;2024-03-29T03:40:05;95300.78;;;13.75;57.96
84511;BME280;74730;43.858;18.424;2024-03-29T03:42:31;95297.97;;;13.58;58.31
84511;BME280;74730;43.858;18.424;2024-03-29T03:44:57;95307.44;;;13.46;58.49
84511;BME280;74730;43.858;18.424;2024-03-29T03:47:22;95305.97;;;13.32;59.62
84511;BME280;74730;43.858;18.424;2024-03-29T03:49:48;95309.44;;;13.19;60.05
84511;BME280;74730;43.858;18.424;2024-03-29T03:52:13;95306.88;;;13.06;60.48
84511;BME280;74730;43.858;18.424;2024-03-29T03:54:39;95305.34;;;12.99;60.96
84511;BME280;74730;43.858;18.424;2024-03-29T03:57:04;95311.53;;;12.98;60.51
84511;BME280;74730;43.858;18.424;2024-03-29T03:59:30;95313.75;;;12.94;60.62
84511;BME280;74730;43.858;18.424;2024-03-29T04:01:56;95317.78;;;12.90;60.90
84511;BME280;74730;43.858;18.424;2024-03-29T04:04:21;95317.78;;;12.83;60.38
84511;BME280;74730;43.858;18.424;2024-03-29T04:06:47;95311.84;;;12.83;60.72
84511;BME280;74730;43.858;18.424;2024-03-29T04:09:16;95299.09;;;12.75;61.24
84511;BME280;74730;43.858;18.424;2024-03-29T04:11:42;95292.38;;;12.67;60.99
84511;BME280;74730;43.858;18.424;2024-03-29T04:14:07;95290.75;;;12.73;61.31
84511;BME280;74730;43.858;18.424;2024-03-29T04:16:33;95292.13;;;12.75;61.02
84511;BME280;74730;43.858;18.424;2024-03-29T04:18:58;95281.75;;;12.82;60.84
84511;BME280;74730;43.858;18.424;2024-03-29T04:21:24;95267.97;;;12.81;61.21
84511;BME280;74730;43.858;18.424;2024-03-29T04:23:49;95267.78;;;12.83;60.82
84511;BME280;74730;43.858;18.424;2024-03-29T04:26:15;95279.88;;;12.89;60.66
84511;BME280;74730;43.858;18.424;2024-03-29T04:28:40;95285.03;;;12.96;60.34
84511;BME280;74730;43.858;18.424;2024-03-29T04:31:06;95290.09;;;13.15;59.78
84511;BME280;74730;43.858;18.424;2024-03-29T04:33:31;95288.94;;;13.11;59.53
84511;BME280;74730;43.858;18.424;2024-03-29T04:36:02;95291.34;;;13.13;59.28
84511;BME280;74730;43.858;18.424;2024-03-29T04:38:28;95285.22;;;13.32;58.91
84511;BME280;74730;43.858;18.424;2024-03-29T04:40:55;95287.38;;;13.35;58.49
84511;BME280;74730;43.858;18.424;2024-03-29T04:43:23;95283.78;;;13.36;58.74
84511;BME280;74730;43.858;18.424;2024-03-29T04:45:48;95280.56;;;13.41;58.95
84511;BME280;74730;43.858;18.424;2024-03-29T04:48:14;95286.25;;;13.49;58.81
84511;BME280;74730;43.858;18.424;2024-03-29T04:50:40;95280.16;;;13.62;57.93
84511;BME280;74730;43.858;18.424;2024-03-29T04:53:07;95304.44;;;13.74;58.01
84511;BME280;74730;43.858;18.424;2024-03-29T04:55:33;95310.66;;;13.91;57.18
84511;BME280;74730;43.858;18.424;2024-03-29T04:58:00;95313.69;;;14.06;56.80
84511;BME280;74730;43.858;18.424;2024-03-29T05:00:25;95327.19;;;14.15;56.22
84511;BME280;74730;43.858;18.424;2024-03-29T05:02:51;95324.75;;;14.20;56.35
84511;BME280;74730;43.858;18.424;2024-03-29T05:05:16;95340.91;;;14.22;56.12
84511;BME280;74730;43.858;18.424;2024-03-29T05:07:42;95321.72;;;14.23;56.58
84511;BME280;74730;43.858;18.424;2024-03-29T05:10:08;95329.66;;;14.28;56.25
84511;BME280;74730;43.858;18.424;2024-03-29T05:12:35;95322.16;;;14.75;55.89
84511;BME280;74730;43.858;18.424;2024-03-29T05:15:01;95313.81;;;15.90;52.62
84511;BME280;74730;43.858;18.424;2024-03-29T05:17:26;95310.31;;;16.71;50.31
84511;BME280;74730;43.858;18.424;2024-03-29T05:19:56;95314.41;;;16.56;50.26
84511;BME280;74730;43.858;18.424;2024-03-29T05:22:21;95328.84;;;16.58;50.11
84511;BME280;74730;43.858;18.424;2024-03-29T05:24:47;95335.94;;;17.03;49.36
84511;BME280;74730;43.858;18.424;2024-03-29T05:27:13;95328.66;;;17.50;48.11
84511;BME280;74730;43.858;18.424;2024-03-29T05:29:39;95324.53;;;18.42;45.75
84511;BME280;74730;43.858;18.424;2024-03-29T05:32:05;95328.91;;;19.51;43.71
84511;BME280;74730;43.858;18.424;2024-03-29T05:34:30;95343.97;;;21.01;40.30
84511;BME280;74730;43.858;18.424;2024-03-29T05:36:56;95344.03;;;22.48;37.52
84511;BME280;74730;43.858;18.424;2024-03-29T05:39:22;95336.63;;;23.24;35.75
84511;BME280;74730;43.858;18.424;2024-03-29T05:41:47;95329.72;;;24.83;33.01
84511;BME280;74730;43.858;18.424;2024-03-29T05:44:13;95339.88;;;26.53;30.69
84511;BME280;74730;43.858;18.424;2024-03-29T05:46:39;95329.09;;;27.75;28.68
84511;BME280;74730;43.858;18.424;2024-03-29T05:49:06;95335.91;;;27.68;27.63
84511;BME280;74730;43.858;18.424;2024-03-29T05:51:32;95320.72;;;28.35;27.54
84511;BME280;74730;43.858;18.424;2024-03-29T05:53:59;95332.84;;;29.06;26.33
84511;BME280;74730;43.858;18.424;2024-03-29T05:56:25;95339.81;;;29.59;25.45
84511;BME280;74730;43.858;18.424;2024-03-29T05:58:50;95342.38;;;30.36;24.59
84511;BME280;74730;43.858;18.424;2024-03-29T06:01:16;95346.91;;;31.41;23.42
84511;BME280;74730;43.858;18.424;2024-03-29T06:03:41;95348.03;;;31.82;23.30
84511;BME280;74730;43.858;18.424;2024-03-29T06:06:07;95340.84;;;32.27;22.31
84511;BME280;74730;43.858;18.424;2024-03-29T06:08:32;95343.28;;;32.20;22.50
84511;BME280;74730;43.858;18.424;2024-03-29T06:10:58;95344.25;;;33.09;21.45
84511;BME280;74730;43.858;18.424;2024-03-29T06:13:24;95356.66;;;32.89;21.65
84511;BME280;74730;43.858;18.424;2024-03-29T06:16:13;95345.72;;;33.07;21.40
84511;BME280;74730;43.858;18.424;2024-03-29T06:18:57;95348.78;;;33.57;20.90
84511;BME280;74730;43.858;18.424;2024-03-29T06:21:23;95351.66;;;34.32;20.18
84511;BME280;74730;43.858;18.424;2024-03-29T06:23:48;95335.34;;;33.29;20.96
84511;BME280;74730;43.858;18.424;2024-03-29T06:26:14;95341.25;;;33.35;20.97
84511;BME280;74730;43.858;18.424;2024-03-29T06:28:39;95348.88;;;30.65;23.11
84511;BME280;74730;43.858;18.424;2024-03-29T06:31:05;95365.38;;;30.58;23.55
84511;BME280;74730;43.858;18.424;2024-03-29T06:33:30;95354.66;;;30.67;23.49
84511;BME280;74730;43.858;18.424;2024-03-29T06:35:56;95353.44;;;30.94;23.13
84511;BME280;74730;43.858;18.424;2024-03-29T06:38:21;95355.09;;;32.31;21.81
84511;BME280;74730;43.858;18.424;2024-03-29T06:40:47;95350.56;;;30.23;23.91
84511;BME280;74730;43.858;18.424;2024-03-29T06:43:13;95362.06;;;31.29;22.71
84511;BME280;74730;43.858;18.424;2024-03-29T06:45:41;95353.44;;;31.94;22.40
84511;BME280;74730;43.858;18.424;2024-03-29T06:48:08;95363.50;;;32.42;21.88
84511;BME280;74730;43.858;18.424;2024-03-29T06:50:34;95363.22;;;31.90;22.42
84511;BME280;74730;43.858;18.424;2024-03-29T06:53:00;95371.50;;;31.26;22.23
84511;BME280;74730;43.858;18.424;2024-03-29T06:55:26;95364.25;;;32.30;21.54
84511;BME280;74730;43.858;18.424;2024-03-29T06:57:51;95367.41;;;32.44;21.50
84511;BME280;74730;43.858;18.424;2024-03-29T07:00:17;95371.25;;;33.28;20.54
84511;BME280;74730;43.858;18.424;2024-03-29T07:02:43;95379.00;;;32.16;21.31
84511;BME280;74730;43.858;18.424;2024-03-29T07:05:10;95380.19;;;33.84;20.59
84511;BME280;74730;43.858;18.424;2024-03-29T07:07:39;95383.81;;;34.91;19.21
84511;BME280;74730;43.858;18.424;2024-03-29T07:10:06;95385.53;;;35.50;18.53
84511;BME280;74730;43.858;18.424;2024-03-29T07:12:32;95382.53;;;34.42;19.49
84511;BME280;74730;43.858;18.424;2024-03-29T07:14:57;95382.63;;;35.39;18.50
84511;BME280;74730;43.858;18.424;2024-03-29T07:17:23;95374.50;;;36.70;17.44
84511;BME280;74730;43.858;18.424;2024-03-29T07:19:48;95370.44;;;37.29;17.59
84511;BME280;74730;43.858;18.424;2024-03-29T07:22:14;95387.72;;;38.14;16.62
84511;BME280;74730;43.858;18.424;2024-03-29T07:24:39;95377.53;;;36.69;17.64
84511;BME280;74730;43.858;18.424;2024-03-29T07:27:05;95384.34;;;36.02;18.07
84511;BME280;74730;43.858;18.424;2024-03-29T07:29:30;95395.00;;;36.36;17.45
84511;BME280;74730;43.858;18.424;2024-03-29T07:31:59;95402.50;;;36.47;17.78
84511;BME280;74730;43.858;18.424;2024-03-29T07:34:25;95395.94;;;35.51;18.83
84511;BME280;74730;43.858;18.424;2024-03-29T07:36:51;95399.53;;;35.75;18.38
84511;BME280;74730;43.858;18.424;2024-03-29T07:39:16;95396.56;;;35.80;18.50
84511;BME280;74730;43.858;18.424;2024-03-29T07:41:42;95392.19;;;34.90;18.78
84511;BME280;74730;43.858;18.424;2024-03-29T07:44:08;95403.00;;;34.18;19.91
84511;BME280;74730;43.858;18.424;2024-03-29T07:46:36;95408.47;;;34.38;19.38
84511;BME280;74730;43.858;18.424;2024-03-29T07:49:05;95397.00;;;32.96;20.64
84511;BME280;74730;43.858;18.424;2024-03-29T07:51:31;95397.47;;;32.98;20.29
84511;BME280;74730;43.858;18.424;2024-03-29T07:53:58;95403.69;;;32.66;21.14
84511;BME280;74730;43.858;18.424;2024-03-29T07:56:25;95391.50;;;32.24;21.40
84511;BME280;74730;43.858;18.424;2024-03-29T07:58:52;95391.59;;;32.15;21.39
84511;BME280;74730;43.858;18.424;2024-03-29T08:01:22;95387.34;;;31.52;21.97
84511;BME280;74730;43.858;18.424;2024-03-29T08:03:51;95392.53;;;31.28;22.01
84511;BME280;74730;43.858;18.424;2024-03-29T08:06:19;95388.50;;;29.68;23.55
84511;BME280;74730;43.858;18.424;2024-03-29T08:08:45;95391.94;;;29.69;23.67
84511;BME280;74730;43.858;18.424;2024-03-29T08:11:11;95386.94;;;29.67;23.78
84511;BME280;74730;43.858;18.424;2024-03-29T08:13:38;95396.50;;;29.77;23.41
84511;BME280;74730;43.858;18.424;2024-03-29T08:16:05;95402.41;;;29.39;23.78
84511;BME280;74730;43.858;18.424;2024-03-29T08:18:31;95404.94;;;28.96;24.82
84511;BME280;74730;43.858;18.424;2024-03-29T08:20:58;95396.75;;;28.23;25.21
84511;BME280;74730;43.858;18.424;2024-03-29T08:23:25;95404.47;;;27.97;26.11
84511;BME280;74730;43.858;18.424;2024-03-29T08:25:51;95413.16;;;27.89;25.97
84511;BME280;74730;43.858;18.424;2024-03-29T08:28:18;95408.72;;;27.98;26.18
84511;BME280;74730;43.858;18.424;2024-03-29T08:30:44;95411.34;;;27.75;26.65
84511;BME280;74730;43.858;18.424;2024-03-29T08:33:09;95412.47;;;28.19;25.95
84511;BME280;74730;43.858;18.424;2024-03-29T08:35:35;95413.75;;;28.22;25.90
84511;BME280;74730;43.858;18.424;2024-03-29T08:38:01;95417.03;;;28.72;24.99
84511;BME280;74730;43.858;18.424;2024-03-29T08:40:28;95422.41;;;28.58;25.09
84511;BME280;74730;43.858;18.424;2024-03-29T08:42:59;95420.13;;;28.43;26.25
84511;BME280;74730;43.858;18.424;2024-03-29T08:45:26;95425.59;;;28.69;25.82
84511;BME280;74730;43.858;18.424;2024-03-29T08:47:51;95429.44;;;28.85;26.26
84511;BME280;74730;43.858;18.424;2024-03-29T08:50:16;95423.59;;;28.74;24.62
84511;BME280;74730;43.858;18.424;2024-03-29T08:52:42;95427.06;;;28.52;24.87
84511;BME280;74730;43.858;18.424;2024-03-29T08:55:10;95424.13;;;28.32;25.88
84511;BME280;74730;43.858;18.424;2024-03-29T08:57:36;95430.22;;;27.96;26.63
84511;BME280;74730;43.858;18.424;2024-03-29T09:00:02;95436.38;;;27.83;26.86
84511;BME280;74730;43.858;18.424;2024-03-29T09:02:28;95441.41;;;27.85;27.03
84511;BME280;74730;43.858;18.424;2024-03-29T09:04:55;95450.97;;;27.72;27.19
84511;BME280;74730;43.858;18.424;2024-03-29T09:07:20;95449.41;;;27.44;27.22
84511;BME280;74730;43.858;18.424;2024-03-29T09:09:49;95451.78;;;27.04;27.17
84511;BME280;74730;43.858;18.424;2024-03-29T09:12:14;95448.06;;;27.05;27.44
84511;BME280;74730;43.858;18.424;2024-03-29T09:14:39;95441.94;;;27.46;26.63
84511;BME280;74730;43.858;18.424;2024-03-29T09:17:05;95444.47;;;28.00;26.36
84511;BME280;74730;43.858;18.424;2024-03-29T09:19:31;95439.38;;;28.04;26.30
84511;BME280;74730;43.858;18.424;2024-03-29T09:21:57;95437.69;;;28.52;25.45
84511;BME280;74730;43.858;18.424;2024-03-29T09:24:23;95443.38;;;28.90;25.14
84511;BME280;74730;43.858;18.424;2024-03-29T09:26:51;95443.91;;;28.26;25.53
84511;BME280;74730;43.858;18.424;2024-03-29T09:29:17;95441.63;;;28.10;25.64
84511;BME280;74730;43.858;18.424;2024-03-29T09:31:44;95436.75;;;27.90;26.38
84511;BME280;74730;43.858;18.424;2024-03-29T09:34:09;95432.72;;;28.37;26.25
84511;BME280;74730;43.858;18.424;2024-03-29T09:36:35;95420.56;;;28.67;25.98
84511;BME280;74730;43.858;18.424;2024-03-29T09:39:00;95421.97;;;28.95;25.85
84511;BME280;74730;43.858;18.424;2024-03-29T09:41:26;95420.47;;;28.72;25.44
84511;BME280;74730;43.858;18.424;2024-03-29T09:43:54;95411.19;;;28.70;25.70
84511;BME280;74730;43.858;18.424;2024-03-29T09:46:44;95426.38;;;27.80;25.90
84511;BME280;74730;43.858;18.424;2024-03-29T09:49:11;95434.47;;;26.33;27.43
84511;BME280;74730;43.858;18.424;2024-03-29T09:51:39;95422.66;;;26.58;28.16
84511;BME280;74730;43.858;18.424;2024-03-29T09:54:05;95425.81;;;26.60;28.11
84511;BME280;74730;43.858;18.424;2024-03-29T09:56:33;95424.56;;;26.25;28.56
84511;BME280;74730;43.858;18.424;2024-03-29T09:58:59;95422.09;;;26.75;28.45
84511;BME280;74730;43.858;18.424;2024-03-29T10:01:27;95426.38;;;26.89;27.88
84511;BME280;74730;43.858;18.424;2024-03-29T10:03:53;95418.53;;;26.98;27.70
84511;BME280;74730;43.858;18.424;2024-03-29T10:06:23;95412.00;;;27.31;27.88
84511;BME280;74730;43.858;18.424;2024-03-29T10:08:49;95406.84;;;27.13;28.01
84511;BME280;74730;43.858;18.424;2024-03-29T10:11:14;95403.50;;;26.94;27.45
84511;BME280;74730;43.858;18.424;2024-03-29T10:13:45;95394.00;;;26.46;28.33
84511;BME280;74730;43.858;18.424;2024-03-29T10:16:11;95397.50;;;26.28;28.20
84511;BME280;74730;43.858;18.424;2024-03-29T10:18:40;95394.59;;;26.11;29.11
84511;BME280;74730;43.858;18.424;2024-03-29T10:21:06;95384.81;;;25.93;29.07
84511;BME280;74730;43.858;18.424;2024-03-29T10:23:33;95388.16;;;24.76;30.27
84511;BME280;74730;43.858;18.424;2024-03-29T10:26:00;95387.03;;;24.58;30.66
84511;BME280;74730;43.858;18.424;2024-03-29T10:28:36;95388.41;;;24.56;30.77
84511;BME280;74730;43.858;18.424;2024-03-29T10:31:03;95377.81;;;24.32;31.22
84511;BME280;74730;43.858;18.424;2024-03-29T10:33:33;95378.03;;;24.02;32.78
84511;BME280;74730;43.858;18.424;2024-03-29T10:36:00;95373.16;;;23.85;32.10
84511;BME280;74730;43.858;18.424;2024-03-29T10:38:26;95368.16;;;23.83;32.00
84511;BME280;74730;43.858;18.424;2024-03-29T10:40:53;95358.75;;;23.72;32.19
84511;BME280;74730;43.858;18.424;2024-03-29T10:43:19;95358.34;;;23.55;32.64
84511;BME280;74730;43.858;18.424;2024-03-29T10:45:46;95353.31;;;23.59;32.36
84511;BME280;74730;43.858;18.424;2024-03-29T10:48:15;95352.75;;;23.62;32.95
84511;BME280;74730;43.858;18.424;2024-03-29T10:50:42;95353.84;;;23.56;33.24
84511;BME280;74730;43.858;18.424;2024-03-29T10:53:09;95364.75;;;23.39;33.04
84511;BME280;74730;43.858;18.424;2024-03-29T10:55:36;95357.88;;;22.94;33.35
84511;BME280;74730;43.858;18.424;2024-03-29T10:58:04;95356.53;;;22.96;32.86
84511;BME280;74730;43.858;18.424;2024-03-29T11:00:41;95354.97;;;22.95;33.20
84511;BME280;74730;43.858;18.424;2024-03-29T11:03:37;95352.81;;;23.08;33.14
84511;BME280;74730;43.858;18.424;2024-03-29T11:06:05;95348.50;;;23.22;33.20
84511;BME280;74730;43.858;18.424;2024-03-29T11:08:40;95337.16;;;23.26;33.28
84511;BME280;74730;43.858;18.424;2024-03-29T11:11:12;95335.81;;;23.29;32.99
84511;BME280;74730;43.858;18.424;2024-03-29T11:13:47;95336.06;;;23.32;33.27
84511;BME280;74730;43.858;18.424;2024-03-29T11:16:14;95331.28;;;23.34;33.97
84511;BME280;74730;43.858;18.424;2024-03-29T11:18:44;95339.41;;;23.48;32.87
84511;BME280;74730;43.858;18.424;2024-03-29T11:21:13;95335.91;;;23.58;33.59
84511;BME280;74730;43.858;18.424;2024-03-29T11:23:48;95349.66;;;23.89;32.63
84511;BME280;74730;43.858;18.424;2024-03-29T11:26:14;95337.25;;;23.89;32.56
84511;BME280;74730;43.858;18.424;2024-03-29T11:28:49;95339.28;;;23.97;32.25
84511;BME280;74730;43.858;18.424;2024-03-29T11:31:15;95337.81;;;24.15;31.84
84511;BME280;74730;43.858;18.424;2024-03-29T11:36:18;95333.09;;;24.12;30.97
84511;BME280;74730;43.858;18.424;2024-03-29T11:38:48;95331.88;;;24.33;31.49
84511;BME280;74730;43.858;18.424;2024-03-29T11:41:16;95332.06;;;24.65;30.73
84511;BME280;74730;43.858;18.424;2024-03-29T11:43:42;95324.50;;;24.78;30.63
84511;BME280;74730;43.858;18.424;2024-03-29T11:46:10;95328.94;;;25.06;30.02
84511;BME280;74730;43.858;18.424;2024-03-29T11:48:36;95317.13;;;25.17;30.15
84511;BME280;74730;43.858;18.424;2024-03-29T11:51:08;95320.16;;;25.48;29.51
84511;BME280;74730;43.858;18.424;2024-03-29T11:53:35;95316.13;;;25.50;29.62
84511;BME280;74730;43.858;18.424;2024-03-29T11:56:02;95315.72;;;25.62;29.73
84511;BME280;74730;43.858;18.424;2024-03-29T11:58:29;95314.56;;;25.68;29.58
84511;BME280;74730;43.858;18.424;2024-03-29T12:00:56;95311.34;;;25.52;29.72
84511;BME280;74730;43.858;18.424;2024-03-29T12:03:26;95305.69;;;25.40;29.68
84511;BME280;74730;43.858;18.424;2024-03-29T12:05:54;95304.00;;;25.31;29.57
84511;BME280;74730;43.858;18.424;2024-03-29T12:08:23;95308.06;;;25.23;29.46
84511;BME280;74730;43.858;18.424;2024-03-29T12:10:48;95310.00;;;25.17;30.08
84511;BME280;74730;43.858;18.424;2024-03-29T12:13:18;95309.94;;;25.23;29.99
84511;BME280;74730;43.858;18.424;2024-03-29T12:15:44;95299.34;;;25.23;29.44
84511;BME280;74730;43.858;18.424;2024-03-29T12:18:10;95298.94;;;25.15;29.80
84511;BME280;74730;43.858;18.424;2024-03-29T12:20:38;95303.97;;;24.93;29.47
84511;BME280;74730;43.858;18.424;2024-03-29T12:23:05;95304.00;;;24.69;30.00
84511;BME280;74730;43.858;18.424;2024-03-29T12:25:33;95296.44;;;24.82;29.28
84511;BME280;74730;43.858;18.424;2024-03-29T12:27:59;95301.00;;;25.00;29.63
84511;BME280;74730;43.858;18.424;2024-03-29T12:30:25;95303.06;;;25.03;29.62
84511;BME280;74730;43.858;18.424;2024-03-29T12:33:05;95299.66;;;24.79;30.12
84511;BME280;74730;43.858;18.424;2024-03-29T12:35:52;95291.56;;;25.12;29.73
84511;BME280;74730;43.858;18.424;2024-03-29T12:38:20;95292.63;;;25.30;29.35
84511;BME280;74730;43.858;18.424;2024-03-29T12:40:47;95295.25;;;25.49;29.85
84511;BME280;74730;43.858;18.424;2024-03-29T12:43:14;95290.03;;;25.63;29.62
84511;BME280;74730;43.858;18.424;2024-03-29T12:45:41;95297.03;;;25.72;29.68
84511;BME280;74730;43.858;18.424;2024-03-29T12:48:11;95290.88;;;25.77;29.29
84511;BME280;74730;43.858;18.424;2024-03-29T12:50:39;95280.03;;;25.92;29.61